Time;durP1;ratioP1;P1;durP2;ratioP2;P2;SDS_P1;SDS_P2;PMS_P1;PMS_P2;Temp;Humidity;BMP_temperature;BMP_pressure;BME280_temperature;BME280_humidity;BME280_pressure;Samples;Min_cycle;Max_cycle;Signal;HPM_P1;HPM_P2
2022/07/24 00:01:55;;;;;;;6.97;6.23;;;26.00;60.00;;;-142.21;81.20;112049.66;5112859;28;20297;-75
2022/07/24 00:04:22;;;;;;;7.07;6.37;;;26.00;60.20;;;-142.21;81.30;112049.66;5113477;28;20207;-75
2022/07/24 00:06:51;;;;;;;7.63;6.93;;;26.00;60.40;;;-142.21;81.90;112049.66;5113111;28;20200;-75
2022/07/24 00:09:18;;;;;;;7.03;6.27;;;25.90;60.80;;;-142.21;82.25;112049.66;5113648;28;20266;-75
2022/07/24 00:11:45;;;;;;;7.13;6.43;;;25.90;60.90;;;-142.21;82.80;112049.66;5112333;28;20249;-75
2022/07/24 00:14:12;;;;;;;7.10;6.40;;;25.80;60.80;;;-142.21;82.56;112049.66;5113395;28;20203;-75
2022/07/24 00:16:40;;;;;;;6.73;6.10;;;25.90;61.00;;;-142.21;82.32;112049.66;5112817;28;20204;-75
2022/07/24 00:19:07;;;;;;;7.20;6.50;;;25.90;61.00;;;-142.21;82.50;112049.66;5113547;28;20299;-75
2022/07/24 00:21:34;;;;;;;7.30;6.70;;;25.80;61.00;;;-142.21;82.59;112049.66;5094031;28;20239;-74
2022/07/24 00:24:03;;;;;;;7.87;7.07;;;25.80;61.30;;;-142.21;82.37;112049.66;5113274;28;20214;-75
2022/07/24 00:26:32;;;;;;;7.07;6.37;;;25.70;61.10;;;-142.21;83.21;112049.66;5113166;28;20226;-75
2022/07/24 00:28:59;;;;;;;6.50;5.90;;;25.70;61.30;;;-142.21;83.32;112049.66;5113142;28;20314;-75
2022/07/24 00:31:26;;;;;;;6.90;6.20;;;25.70;61.30;;;-142.21;83.94;112049.66;5112677;28;20231;-75
2022/07/24 00:33:53;;;;;;;6.97;6.37;;;25.70;61.60;;;-142.21;83.99;112049.66;5112870;28;20204;-74
2022/07/24 00:36:20;;;;;;;7.10;6.17;;;25.70;61.70;;;-142.21;83.59;112049.66;5113191;28;20291;-74
2022/07/24 00:38:50;;;;;;;7.30;6.60;;;25.70;61.60;;;-142.21;84.33;112049.66;5112704;28;20196;-74
2022/07/24 00:41:19;;;;;;;6.33;5.73;;;25.70;61.90;;;-142.21;84.45;112049.66;5112910;28;20203;-75
2022/07/24 00:44:08;;;;;;;7.20;6.60;;;25.60;61.90;;;-142.21;84.42;112049.66;5112620;28;20230;-75
2022/07/24 00:46:38;;;;;;;7.33;6.60;;;25.60;62.60;;;-142.21;84.83;112049.66;5112737;28;20536;-75
2022/07/24 00:49:08;;;;;;;7.10;6.43;;;25.50;62.40;;;-142.21;85.34;112049.66;5095349;28;20243;-75
2022/07/24 00:51:37;;;;;;;7.03;6.10;;;25.40;62.30;;;-142.21;84.99;112049.66;5112616;28;20554;-74
2022/07/24 00:54:05;;;;;;;6.60;5.90;;;25.40;62.40;;;-142.21;85.59;112049.66;5112606;28;20263;-75
2022/07/24 00:56:34;;;;;;;7.10;6.50;;;25.30;62.70;;;-142.21;86.92;112049.66;5112704;28;20200;-75
2022/07/24 00:59:02;;;;;;;10.20;6.47;;;25.10;64.40;;;-142.21;87.62;112049.66;5112818;28;20203;-74
2022/07/24 01:01:30;;;;;;;6.33;5.73;;;25.10;63.90;;;-142.21;87.65;112049.66;5112975;28;20208;-75
2022/07/24 01:03:59;;;;;;;9.50;6.73;;;25.10;63.90;;;-142.21;87.61;112049.66;5112517;28;20559;-74
2022/07/24 01:06:26;;;;;;;7.73;6.53;;;25.00;64.10;;;-142.21;88.00;112049.66;5112976;28;20207;-75
2022/07/24 01:08:53;;;;;;;7.20;6.50;;;24.90;64.40;;;-142.21;88.50;112049.66;5111914;28;20328;-75
2022/07/24 01:11:23;;;;;;;8.93;6.53;;;24.80;64.40;;;-142.21;88.96;112049.66;5112714;28;20554;-75
2022/07/24 01:13:52;;;;;;;7.47;6.77;;;24.90;65.40;;;-142.21;88.77;112049.66;5114145;28;20682;-74
2022/07/24 01:16:19;;;;;;;7.20;6.10;;;25.00;64.70;;;-142.21;88.46;112049.66;5117034;28;20209;-74
2022/07/24 01:18:46;;;;;;;7.07;6.37;;;24.90;64.30;;;-142.21;88.43;112049.66;5104202;28;20196;-75
2022/07/24 01:21:15;;;;;;;7.80;6.93;;;24.90;64.50;;;-142.21;89.07;112049.66;5096591;28;20200;-75
2022/07/24 01:23:43;;;;;;;6.90;6.23;;;24.90;64.70;;;-142.21;89.32;112049.66;5095386;28;20210;-75
2022/07/24 01:26:10;;;;;;;7.23;6.53;;;24.80;64.70;;;-142.21;89.32;112049.66;5096488;28;20204;-75
2022/07/24 01:28:37;;;;;;;7.70;7.00;;;24.80;65.00;;;-142.21;89.68;112049.66;5095980;28;20314;-75
2022/07/24 01:31:04;;;;;;;7.80;6.70;;;24.80;65.10;;;-142.21;89.39;112049.66;5095834;28;20323;-75
2022/07/24 01:33:31;;;;;;;7.50;6.70;;;24.80;65.20;;;-142.21;89.85;112049.66;5096350;28;20210;-74
2022/07/24 01:35:59;;;;;;;9.20;6.30;;;24.80;65.20;;;-142.21;90.06;112049.66;5095445;28;20218;-76
2022/07/24 01:38:27;;;;;;;6.83;6.23;;;24.80;65.10;;;-142.21;89.42;112049.66;5098289;28;20219;-75
2022/07/24 01:40:54;;;;;;;8.50;7.20;;;24.80;65.10;;;-142.21;89.39;112049.66;5115953;28;20215;-75
2022/07/24 01:43:22;;;;;;;7.17;6.53;;;24.80;65.00;;;-142.21;89.30;112049.66;5116218;28;20206;-76
2022/07/24 01:45:49;;;;;;;7.43;6.67;;;24.70;64.90;;;-142.21;89.46;112049.66;5115965;28;20290;-75
2022/07/24 01:48:16;;;;;;;6.90;6.30;;;24.70;65.00;;;-142.21;89.23;112049.66;5098249;28;20227;-75
2022/07/24 01:50:43;;;;;;;7.07;6.43;;;24.70;65.00;;;-142.21;89.34;112049.66;5115932;28;20235;-75
2022/07/24 01:53:10;;;;;;;8.23;6.73;;;24.70;65.10;;;-142.21;89.04;112049.66;5116137;28;20290;-75
2022/07/24 01:55:39;;;;;;;8.00;7.03;;;24.70;65.00;;;-142.21;88.98;112049.66;5116122;28;20233;-75
2022/07/24 01:58:06;;;;;;;7.70;6.87;;;24.70;65.00;;;-142.21;88.70;112049.66;5116170;28;20294;-75
2022/07/24 02:00:33;;;;;;;7.77;6.47;;;24.70;64.90;;;-142.21;88.67;112049.66;5116107;28;20204;-74
2022/07/24 02:03:00;;;;;;;7.00;6.40;;;24.70;64.90;;;-142.21;88.75;112049.66;5115330;28;20201;-74
2022/07/24 02:05:27;;;;;;;7.20;6.50;;;24.60;64.80;;;-142.21;88.97;112049.66;5116215;28;20213;-75
2022/07/24 02:08:00;;;;;;;7.17;6.47;;;24.60;64.90;;;-142.21;89.12;112049.66;5114838;28;20203;-74
2022/07/24 02:10:29;;;;;;;7.70;6.90;;;24.60;65.20;;;-142.21;89.12;112049.66;5116066;28;20294;-74
2022/07/24 02:12:58;;;;;;;7.13;6.37;;;24.60;65.10;;;-142.21;89.27;112049.66;5115074;28;20294;-73
2022/07/24 02:15:25;;;;;;;7.30;6.60;;;24.60;65.10;;;-142.21;89.90;112049.66;5116021;28;20207;-74
2022/07/24 02:17:58;;;;;;;7.57;6.53;;;24.50;65.20;;;-142.21;89.92;112049.66;5115323;28;20211;-74
2022/07/24 02:20:26;;;;;;;6.50;5.90;;;24.50;65.40;;;-142.21;90.45;112049.66;5115658;28;20693;-74
2022/07/24 02:22:53;;;;;;;7.30;6.60;;;24.50;65.40;;;-142.21;90.66;112049.66;5115174;28;20301;-76
2022/07/24 02:25:21;;;;;;;7.53;6.83;;;24.40;65.50;;;-142.21;90.95;112049.66;5115250;28;20203;-74
2022/07/24 02:27:48;;;;;;;6.97;6.27;;;24.40;65.60;;;-142.21;90.95;112049.66;5097203;28;20200;-74
2022/07/24 02:30:21;;;;;;;7.30;6.40;;;24.40;65.70;;;-142.21;91.24;112049.66;5115022;28;20231;-74
2022/07/24 02:32:48;;;;;;;6.80;6.10;;;24.40;66.10;;;-142.21;91.03;112049.66;5114765;28;20639;-75
2022/07/24 02:35:15;;;;;;;6.33;5.73;;;24.30;65.80;;;-142.21;90.71;112049.66;5115274;28;20213;-75
2022/07/24 02:37:46;;;;;;;9.17;7.10;;;24.30;65.80;;;-142.21;90.62;112049.66;5114868;28;20203;-76
2022/07/24 02:40:15;;;;;;;7.83;7.03;;;24.30;65.80;;;-142.21;90.35;112049.66;5115740;28;20597;-76
2022/07/24 02:42:43;;;;;;;7.53;6.60;;;24.30;65.70;;;-142.21;90.36;112049.66;5114750;28;20204;-75
2022/07/24 02:45:11;;;;;;;7.20;6.60;;;24.20;65.80;;;-142.21;91.05;112049.66;5115533;28;20222;-73
2022/07/24 02:47:49;;;;;;;7.40;6.70;;;24.10;65.90;;;-142.21;91.25;112049.66;5097498;28;20200;-75
2022/07/24 02:50:18;;;;;;;7.57;6.87;;;24.10;66.50;;;-142.21;91.98;112049.66;5114804;28;20214;-75
2022/07/24 02:52:45;;;;;;;7.70;7.00;;;24.00;66.40;;;-142.21;92.28;112049.66;5114580;28;20210;-74
2022/07/24 02:55:13;;;;;;;7.10;6.40;;;23.90;66.30;;;-142.21;92.26;112049.66;5115098;28;20233;-75
2022/07/24 02:57:40;;;;;;;9.10;7.50;;;23.90;66.40;;;-142.21;92.33;112049.66;5115198;28;20210;-75
2022/07/24 03:00:11;;;;;;;10.07;6.70;;;23.90;66.60;;;-142.21;92.57;112049.66;5114753;28;20238;-75
2022/07/24 03:02:38;;;;;;;7.87;7.17;;;23.80;67.00;;;-142.21;93.09;112049.66;5115185;28;20279;-74
2022/07/24 03:05:08;;;;;;;8.30;7.20;;;23.80;67.20;;;-142.21;93.72;112049.66;5113859;28;20211;-74
2022/07/24 03:07:36;;;;;;;8.10;7.20;;;23.60;67.70;;;-142.21;94.56;112049.66;5115079;28;20652;-74
2022/07/24 03:10:04;;;;;;;8.23;7.43;;;23.40;68.00;;;-142.21;95.01;112049.66;5113778;28;20235;-74
2022/07/24 03:12:31;;;;;;;8.13;7.43;;;23.30;68.40;;;-142.21;95.29;112049.66;5114887;28;20204;-74
2022/07/24 03:14:58;;;;;;;6.97;6.33;;;23.30;68.60;;;-142.21;95.35;112049.66;5114348;28;20290;-75
2022/07/24 03:17:25;;;;;;;7.27;6.63;;;23.30;68.50;;;-142.21;95.42;112049.66;5114803;28;20206;-75
2022/07/24 03:19:53;;;;;;;7.77;6.97;;;23.30;68.30;;;-142.21;94.92;112049.66;5113806;28;20202;-75
2022/07/24 03:22:21;;;;;;;7.57;6.83;;;23.40;68.10;;;-142.21;94.43;112049.66;5114714;28;20296;-75
2022/07/24 03:24:48;;;;;;;7.77;7.07;;;23.40;68.00;;;-142.21;94.32;112049.66;5113970;28;20209;-75
2022/07/24 03:27:15;;;;;;;7.30;6.70;;;23.40;67.90;;;-142.21;94.65;112049.66;5114533;28;20574;-74
2022/07/24 03:29:43;;;;;;;7.90;7.10;;;23.50;67.90;;;-142.21;94.61;112049.66;5114313;28;20246;-75
2022/07/24 03:32:10;;;;;;;7.10;6.50;;;23.40;67.60;;;-142.21;94.47;112049.66;5114038;28;20274;-75
2022/07/24 03:34:38;;;;;;;7.30;6.60;;;23.40;68.00;;;-142.21;94.47;112049.66;5114034;28;20204;-75
2022/07/24 03:37:05;;;;;;;7.67;6.97;;;23.40;68.00;;;-142.21;94.39;112049.66;5112736;28;20215;-75
2022/07/24 03:39:33;;;;;;;7.60;6.90;;;23.40;68.80;;;-142.21;94.55;112049.66;5113989;28;20205;-75
2022/07/24 03:42:00;;;;;;;8.17;7.43;;;23.30;68.40;;;-142.21;94.95;112049.66;5113668;28;20606;-74
2022/07/24 03:44:28;;;;;;;7.53;6.83;;;23.20;68.60;;;-142.21;95.50;112049.66;5114166;28;20275;-75
2022/07/24 03:46:55;;;;;;;8.20;7.23;;;23.10;68.70;;;-142.21;95.37;112049.66;5113200;28;20287;-75
2022/07/24 03:49:22;;;;;;;7.43;6.70;;;23.10;68.70;;;-142.21;95.26;112049.66;5113675;28;20225;-75
2022/07/24 03:51:49;;;;;;;8.97;7.63;;;23.10;68.60;;;-142.21;95.06;112049.66;5113560;28;20214;-75
2022/07/24 03:54:16;;;;;;;7.30;6.67;;;23.10;68.60;;;-142.21;95.35;112049.66;5113922;28;20228;-75
2022/07/24 03:56:45;;;;;;;7.77;7.03;;;23.20;68.60;;;-142.21;95.33;112049.66;5113950;28;20294;-75
2022/07/24 03:59:12;;;;;;;7.60;6.80;;;23.10;68.60;;;-142.21;95.34;112049.66;5114125;28;20599;-75
2022/07/24 04:01:39;;;;;;;10.10;7.33;;;23.10;68.50;;;-142.21;95.52;112049.66;5113615;28;20227;-75
2022/07/24 04:04:07;;;;;;;7.73;7.03;;;23.10;68.60;;;-142.21;95.73;112049.66;5112957;28;20200;-75
2022/07/24 04:06:35;;;;;;;7.80;6.67;;;23.10;68.80;;;-142.21;95.42;112049.66;5113991;28;20203;-74
2022/07/24 04:09:05;;;;;;;8.10;7.40;;;23.10;68.80;;;-142.21;95.69;112049.66;5113175;28;20237;-74
2022/07/24 04:11:32;;;;;;;8.57;6.67;;;23.10;69.00;;;-142.21;95.45;112049.66;5113635;28;20706;-74
2022/07/24 04:14:00;;;;;;;8.50;7.57;;;23.10;68.80;;;-142.21;95.66;112049.66;5113191;28;20209;-75
2022/07/24 04:16:28;;;;;;;8.13;6.97;;;23.10;69.10;;;-142.21;95.43;112049.66;5112598;28;20239;-75
2022/07/24 04:18:55;;;;;;;10.23;7.43;;;23.00;68.80;;;-142.21;95.80;112049.66;5112550;28;20209;-75
2022/07/24 04:21:22;;;;;;;7.77;7.07;;;23.00;68.90;;;-142.21;95.93;112049.66;5113492;28;20212;-75
2022/07/24 04:23:49;;;;;;;8.13;7.33;;;22.90;68.90;;;-142.21;96.23;112049.66;5112787;28;20210;-74
2022/07/24 04:26:17;;;;;;;7.77;7.03;;;22.90;69.00;;;-142.21;96.20;112049.66;5113457;28;20204;-75
2022/07/24 04:28:45;;;;;;;7.90;7.10;;;23.00;68.90;;;-142.21;96.51;112049.66;5113135;28;20250;-74
2022/07/24 04:31:14;;;;;;;8.33;7.27;;;23.10;69.30;;;-142.21;96.96;112049.66;5112808;28;20318;-75
2022/07/24 04:33:41;;;;;;;7.80;7.10;;;23.00;69.40;;;-142.21;96.87;112049.66;5113273;28;20214;-75
2022/07/24 04:36:08;;;;;;;8.30;7.37;;;23.00;69.40;;;-142.21;96.59;112049.66;5105703;28;20593;-75
2022/07/24 04:38:36;;;;;;;9.43;8.23;;;23.10;69.30;;;-142.21;96.22;112049.66;5096510;28;20324;-75
2022/07/24 04:41:04;;;;;;;8.40;7.60;;;23.00;69.10;;;-142.21;96.50;112049.66;5112537;28;20306;-74
2022/07/24 04:43:32;;;;;;;8.83;8.00;;;23.00;69.40;;;-142.21;96.62;112049.66;5112981;28;20207;-75
2022/07/24 04:46:00;;;;;;;9.10;7.70;;;22.90;69.50;;;-142.21;97.20;112049.66;5111985;28;20199;-75
2022/07/24 04:48:28;;;;;;;8.93;7.80;;;23.00;70.60;;;-142.21;96.80;112049.66;5113048;28;20199;-75
2022/07/24 04:50:55;;;;;;;8.80;8.00;;;23.00;69.90;;;-142.21;96.39;112049.66;5112481;28;20267;-75
2022/07/24 04:53:24;;;;;;;8.83;7.93;;;23.10;69.50;;;-142.21;96.71;112049.66;5112980;28;20209;-74
2022/07/24 04:55:51;;;;;;;8.10;7.37;;;23.10;69.70;;;-142.21;96.64;112049.66;5112546;28;20233;-74
2022/07/24 04:58:18;;;;;;;8.63;7.03;;;23.10;69.60;;;-142.21;96.64;112049.66;5113084;28;20603;-75
2022/07/24 05:00:45;;;;;;;8.43;7.63;;;23.20;69.60;;;-142.21;96.85;112049.66;5094748;28;20206;-75
2022/07/24 05:03:12;;;;;;;8.37;7.33;;;23.20;69.50;;;-142.21;96.30;112049.66;5112466;28;20292;-75
2022/07/24 05:05:41;;;;;;;8.70;7.80;;;23.30;70.20;;;-142.21;95.88;112049.66;5112720;28;20671;-74
2022/07/24 05:08:08;;;;;;;7.60;6.90;;;23.30;69.40;;;-142.21;95.73;112049.66;5112425;28;20202;-75
2022/07/24 05:10:35;;;;;;;8.37;7.57;;;23.20;69.30;;;-142.21;96.32;112049.66;5112999;28;20644;-75
2022/07/24 05:13:02;;;;;;;7.57;6.87;;;23.30;69.50;;;-142.21;96.52;112049.66;5112053;28;20284;-75
2022/07/24 05:15:30;;;;;;;8.27;7.57;;;23.40;69.70;;;-142.21;95.78;112049.66;5112505;28;20196;-74
2022/07/24 05:17:57;;;;;;;8.43;7.63;;;23.40;69.00;;;-142.21;95.70;112049.66;5112294;28;20566;-75
2022/07/24 05:20:24;;;;;;;8.10;7.30;;;23.50;69.10;;;-142.21;94.84;112049.66;5112430;28;20200;-75
2022/07/24 05:22:53;;;;;;;8.53;7.10;;;23.50;68.70;;;-142.21;95.19;112049.66;5112019;28;20720;-75
2022/07/24 05:25:20;;;;;;;8.60;7.80;;;23.50;69.00;;;-142.21;95.17;112049.66;5112821;28;20204;-75
2022/07/24 05:27:47;;;;;;;7.77;6.97;;;23.60;69.30;;;-142.21;93.92;112049.66;5112280;28;20249;-74
2022/07/24 05:30:15;;;;;;;7.90;7.10;;;23.50;68.60;;;-142.21;93.61;112049.66;5111731;28;20228;-75
2022/07/24 05:32:43;;;;;;;8.30;7.10;;;23.60;68.50;;;-142.21;92.95;112049.66;5094896;28;20274;-75
2022/07/24 05:35:10;;;;;;;8.67;7.33;;;23.70;68.20;;;-142.21;92.46;112049.66;5111794;28;20225;-75
2022/07/24 05:37:37;;;;;;;8.13;7.07;;;23.80;68.00;;;-142.21;91.42;112049.66;5112506;28;20207;-75
2022/07/24 05:40:08;;;;;;;8.47;7.77;;;23.80;67.40;;;-142.21;90.55;112049.66;5112042;28;20286;-75
2022/07/24 05:42:36;;;;;;;6.97;6.37;;;23.90;67.00;;;-142.21;89.02;112049.66;5112270;28;20188;-75
2022/07/24 05:45:04;;;;;;;7.60;6.90;;;23.90;66.20;;;-142.21;88.84;112049.66;5111630;28;20293;-75
2022/07/24 05:47:38;;;;;;;6.77;6.17;;;24.00;66.00;;;-142.21;87.95;112049.66;5112650;28;20207;-75
2022/07/24 05:50:08;;;;;;;7.00;6.30;;;24.10;65.60;;;-142.21;87.96;112049.66;5112052;28;20566;-75
2022/07/24 05:52:36;;;;;;;7.27;6.63;;;24.10;65.40;;;-142.21;88.15;112049.66;5112537;28;20264;-75
2022/07/24 05:55:08;;;;;;;9.43;6.70;;;24.10;65.50;;;-142.21;87.79;112049.66;5111811;28;20306;-75
2022/07/24 05:57:35;;;;;;;8.53;6.83;;;24.30;65.60;;;-142.21;88.00;112049.66;5112412;28;20282;-74
2022/07/24 06:00:03;;;;;;;7.57;6.87;;;24.30;65.40;;;-142.21;88.65;112049.66;5113816;28;20549;-74
2022/07/24 06:02:30;;;;;;;8.07;7.27;;;24.40;65.90;;;-142.21;88.42;112049.66;5116119;28;20249;-75
2022/07/24 06:04:58;;;;;;;8.03;7.30;;;24.40;65.60;;;-142.21;88.69;112049.66;5115472;28;20261;-74
2022/07/24 06:07:25;;;;;;;7.53;6.73;;;24.40;65.90;;;-142.21;89.03;112049.66;5116235;28;20206;-75
2022/07/24 06:09:52;;;;;;;8.53;7.37;;;24.60;66.10;;;-142.21;88.29;112049.66;5116117;28;20228;-74
2022/07/24 06:12:20;;;;;;;8.03;7.23;;;24.70;65.70;;;-142.21;87.28;112049.66;5115767;28;20213;-75
2022/07/24 06:14:47;;;;;;;7.53;6.80;;;24.80;65.10;;;-142.21;85.89;112049.66;5115847;28;20336;-75
2022/07/24 06:17:15;;;;;;;8.07;7.23;;;24.80;64.50;;;-142.21;84.83;112049.66;5115155;28;20286;-74
2022/07/24 06:19:42;;;;;;;7.17;6.57;;;24.80;63.90;;;-142.21;84.48;112049.66;5115957;28;20291;-74
2022/07/24 06:22:09;;;;;;;6.20;5.60;;;25.00;63.50;;;-142.21;79.30;112049.66;5115239;28;20242;-75
2022/07/24 06:24:36;;;;;;;7.87;5.67;;;25.10;61.40;;;-142.21;76.97;112049.66;5115485;28;20644;-74
2022/07/24 06:27:04;;;;;;;6.20;5.60;;;25.20;60.30;;;-142.21;76.33;112049.66;5114880;28;20290;-75
2022/07/24 06:29:33;;;;;;;5.83;5.07;;;25.30;60.50;;;-142.21;72.30;112049.66;5115176;28;20241;-74
2022/07/24 06:32:01;;;;;;;5.80;5.30;;;25.30;58.60;;;-142.21;71.48;112049.66;5114390;28;20244;-75
2022/07/24 06:34:28;;;;;;;6.77;5.37;;;25.40;58.20;;;-142.21;71.86;112049.66;5096264;28;20282;-74
2022/07/24 06:36:55;;;;;;;6.43;5.20;;;25.40;58.40;;;-142.21;72.77;112049.66;5115000;28;20227;-74
2022/07/24 06:39:22;;;;;;;5.30;4.80;;;25.50;58.20;;;-142.21;71.74;112049.66;5115419;28;20279;-74
2022/07/24 06:41:49;;;;;;;5.90;5.37;;;25.60;58.10;;;-142.21;68.46;112049.66;5062780;28;20239;-75
2022/07/24 06:44:16;;;;;;;6.60;5.20;;;25.70;57.00;;;-142.21;67.52;112049.66;5114468;28;20200;-75
2022/07/24 06:46:44;;;;;;;5.23;4.73;;;25.70;56.70;;;-142.21;67.50;112049.66;5115266;28;20227;-75
2022/07/24 06:49:12;;;;;;;6.67;5.30;;;25.70;56.70;;;-142.21;68.35;112049.66;5114481;28;20207;-75
2022/07/24 06:51:39;;;;;;;6.47;5.50;;;25.80;56.90;;;-142.21;67.25;112049.66;5097364;28;20223;-75
2022/07/24 06:54:06;;;;;;;6.43;5.17;;;25.90;56.60;;;-142.21;67.26;112049.66;5114670;28;20231;-75
2022/07/24 06:56:33;;;;;;;5.10;4.70;;;26.00;56.50;;;-142.21;65.54;112049.66;5114739;28;20235;-75
2022/07/24 06:59:00;;;;;;;5.97;4.90;;;26.10;56.10;;;-142.21;65.63;112049.66;5114214;28;20691;-74
2022/07/24 07:01:28;;;;;;;4.93;4.53;;;26.20;56.00;;;-142.21;65.62;112049.66;5115097;28;20872;-74
2022/07/24 07:03:56;;;;;;;6.37;5.20;;;26.30;55.70;;;-142.21;62.66;112049.66;5115188;28;20213;-75
2022/07/24 07:06:24;;;;;;;5.70;5.03;;;26.30;54.90;;;-142.21;62.00;112049.66;5115031;28;20207;-75
2022/07/24 07:08:51;;;;;;;4.70;4.30;;;26.40;55.00;;;-142.21;61.43;112049.66;5115091;28;20254;-75
2022/07/24 07:11:18;;;;;;;5.77;4.70;;;26.40;55.00;;;-142.21;62.66;112049.66;5112682;28;20262;-74
2022/07/24 07:13:45;;;;;;;5.07;4.63;;;26.60;55.20;;;-142.21;66.90;112049.66;5114937;28;20246;-75
2022/07/24 07:16:12;;;;;;;5.37;4.87;;;26.70;56.40;;;-142.21;60.54;112049.66;5114164;28;20238;-74
2022/07/24 07:18:39;;;;;;;5.20;4.60;;;26.80;54.30;;;-142.21;60.83;112049.66;5114752;28;20207;-74
2022/07/24 07:21:08;;;;;;;6.10;4.90;;;26.90;54.40;;;-142.21;64.14;112049.66;5114156;28;20222;-75
2022/07/24 07:23:35;;;;;;;5.00;4.60;;;27.00;54.80;;;-142.21;62.88;112049.66;5114169;28;20200;-74
2022/07/24 07:26:02;;;;;;;5.83;5.23;;;27.20;54.40;;;-142.21;57.49;112049.66;5113716;28;20740;-75
2022/07/24 07:28:29;;;;;;;5.33;4.70;;;27.20;53.00;;;-142.21;59.46;112049.66;5114398;28;20683;-74
2022/07/24 07:30:56;;;;;;;5.53;4.87;;;27.30;53.30;;;-142.21;57.56;112049.66;5095792;28;20611;-74
2022/07/24 07:33:23;;;;;;;6.33;5.27;;;27.30;52.90;;;-142.21;55.10;112049.66;5061939;28;20243;-74
2022/07/24 07:35:51;;;;;;;4.90;4.50;;;27.30;52.10;;;-142.21;59.50;112049.66;5114134;28;20735;-74
2022/07/24 07:38:19;;;;;;;5.60;5.10;;;27.40;53.40;;;-142.21;54.44;112049.66;5113338;28;20300;-75
2022/07/24 07:40:46;;;;;;;6.70;5.10;;;27.40;52.20;;;-142.21;54.24;112049.66;5114202;28;20562;-75
2022/07/24 07:43:13;;;;;;;5.83;5.33;;;27.50;52.10;;;-142.21;53.54;112049.66;5113373;28;20204;-76
2022/07/24 07:45:41;;;;;;;6.00;4.83;;;27.60;52.00;;;-142.21;51.18;112049.66;5113696;28;20641;-75
2022/07/24 07:48:08;;;;;;;5.07;4.57;;;27.70;51.20;;;-142.21;52.07;112049.66;5113413;28;20205;-76
2022/07/24 07:50:35;;;;;;;5.63;5.13;;;27.70;51.60;;;-142.21;51.45;112049.66;5114115;28;20315;-74
2022/07/24 07:53:02;;;;;;;5.97;4.73;;;27.80;51.10;;;-142.21;51.63;112049.66;5113211;28;20540;-74
2022/07/24 07:55:30;;;;;;;5.50;4.90;;;27.90;51.30;;;-142.21;50.36;112049.66;5095501;28;20237;-75
2022/07/24 07:57:58;;;;;;;5.33;4.83;;;27.90;51.30;;;-142.21;50.44;112049.66;5093494;28;20297;-74
2022/07/24 08:00:25;;;;;;;5.07;4.67;;;28.00;50.70;;;-142.21;50.81;112049.66;5093312;28;20210;-74
2022/07/24 08:02:53;;;;;;;5.80;5.20;;;28.20;50.90;;;-142.21;49.66;112049.66;5041437;28;20298;-75
2022/07/24 08:05:21;;;;;;;5.10;4.60;;;28.30;50.60;;;-142.21;49.91;112049.66;5092943;28;20293;-75
2022/07/24 08:07:48;;;;;;;5.00;4.60;;;28.40;50.30;;;-142.21;49.46;112049.66;5093290;28;20556;-75
2022/07/24 08:10:15;;;;;;;5.47;4.97;;;28.50;50.20;;;-142.21;48.34;112049.66;5092415;28;20226;-74
2022/07/24 08:12:43;;;;;;;5.60;5.10;;;28.60;49.70;;;-142.21;47.37;112049.66;5093382;28;20207;-75
2022/07/24 08:15:12;;;;;;;5.20;4.70;;;28.60;49.00;;;-142.21;47.16;112049.66;5092663;28;20293;-76
2022/07/24 08:17:39;;;;;;;5.30;4.80;;;28.70;49.30;;;-142.21;46.75;112049.66;5093118;28;20215;-74
2022/07/24 08:20:08;;;;;;;6.80;5.17;;;28.80;49.30;;;-142.21;46.14;112049.66;5092694;28;20292;-75
2022/07/24 08:22:35;;;;;;;5.17;4.77;;;28.90;49.00;;;-142.21;46.58;112049.66;5092572;28;20667;-74
2022/07/24 08:25:02;;;;;;;7.63;5.40;;;29.00;49.30;;;-142.21;45.40;112049.66;5092493;28;20313;-74
2022/07/24 08:27:29;;;;;;;4.87;4.47;;;29.10;48.60;;;-142.21;43.65;112049.66;5075108;28;20216;-75
2022/07/24 08:30:00;;;;;;;5.87;5.17;;;29.10;48.40;;;-142.21;44.45;112049.66;5092547;28;20213;-75
2022/07/24 08:32:27;;;;;;;5.47;4.87;;;29.10;48.20;;;-142.21;45.83;112049.66;5092914;28;20199;-74
2022/07/24 08:34:54;;;;;;;5.20;4.70;;;29.20;48.60;;;-142.21;45.22;112049.66;5093137;28;20239;-75
2022/07/24 08:37:21;;;;;;;5.33;4.83;;;29.30;48.30;;;-142.21;43.57;112049.66;5092085;28;20211;-74
2022/07/24 08:39:48;;;;;;;4.97;4.57;;;29.40;47.50;;;-142.21;42.89;112049.66;5106743;28;20203;-75
2022/07/24 08:42:16;;;;;;;5.67;4.87;;;29.50;47.00;;;-142.21;42.82;112049.66;5112717;28;20223;-75
2022/07/24 08:44:43;;;;;;;7.13;5.43;;;29.50;47.20;;;-142.21;42.57;112049.66;5113147;28;20242;-74
2022/07/24 08:47:13;;;;;;;5.87;4.83;;;29.60;46.80;;;-142.21;42.92;112049.66;5112595;28;20634;-75
2022/07/24 08:49:41;;;;;;;6.40;5.37;;;29.60;47.10;;;-142.21;41.97;112049.66;5113474;28;20298;-74
2022/07/24 08:52:10;;;;;;;4.93;4.40;;;29.70;46.50;;;-142.21;42.28;112049.66;5112323;28;20234;-75
2022/07/24 08:54:40;;;;;;;5.87;5.07;;;29.70;46.90;;;-142.21;42.33;112049.66;5112924;28;20234;-74
2022/07/24 08:57:08;;;;;;;6.97;4.83;;;29.90;46.60;;;-142.21;43.02;112049.66;5112151;28;20186;-74
2022/07/24 08:59:35;;;;;;;5.50;4.60;;;29.90;46.90;;;-142.21;43.67;112049.66;5112905;28;20730;-74
2022/07/24 09:02:02;;;;;;;7.23;4.97;;;30.10;47.20;;;-142.21;43.51;112049.66;5112793;28;20196;-75
2022/07/24 09:04:37;;;;;;;6.23;4.70;;;30.30;47.00;;;-142.21;41.83;112049.66;5113126;28;20299;-75
2022/07/24 09:07:07;;;;;;;8.50;5.00;;;30.30;45.60;;;-142.21;40.48;112049.66;5111891;28;20631;-74
2022/07/24 09:09:35;;;;;;;4.77;4.27;;;30.40;45.10;;;-142.21;41.26;112049.66;5095126;28;20294;-74
2022/07/24 09:12:12;;;;;;;7.80;4.87;;;30.50;45.70;;;-142.21;43.03;112049.66;5112786;28;20223;-75
2022/07/24 09:14:43;;;;;;;4.80;4.40;;;30.60;46.40;;;-142.21;40.57;112049.66;5113132;28;20240;-74
2022/07/24 09:17:13;;;;;;;5.30;4.90;;;30.80;45.20;;;-142.21;40.25;112049.66;5112390;28;20274;-74
2022/07/24 09:19:51;;;;;;;6.10;5.60;;;30.70;44.90;;;-142.21;38.74;112049.66;5112487;28;20283;-75
2022/07/24 09:22:27;;;;;;;5.83;4.87;;;30.50;43.00;;;-142.21;39.12;112049.66;5111956;28;20644;-76
2022/07/24 09:25:14;;;;;;;5.70;5.20;;;30.40;44.00;;;-142.21;38.87;112049.66;5113015;28;20187;-75
2022/07/24 09:27:49;;;;;;;5.50;5.00;;;30.40;43.60;;;-142.21;39.28;112049.66;5112949;28;20194;-75
2022/07/24 09:30:31;;;;;;;5.90;5.30;;;30.40;44.00;;;-142.21;40.12;112049.66;5110568;28;20242;-74
2022/07/24 09:33:01;;;;;;;5.67;5.17;;;30.60;44.50;;;-142.21;38.83;112049.66;5112944;28;20254;-74
2022/07/24 09:35:36;;;;;;;5.93;5.43;;;30.80;44.10;;;-142.21;41.87;112049.66;5114901;28;20211;-74
2022/07/24 09:38:06;;;;;;;5.23;4.77;;;30.90;45.60;;;-142.21;38.92;112049.66;5116531;28;20184;-75
2022/07/24 09:40:38;;;;;;;5.70;5.20;;;31.10;43.90;;;-142.21;38.60;112049.66;5116727;28;20572;-74
2022/07/24 09:43:22;;;;;;;6.43;5.83;;;31.10;43.80;;;-142.21;38.85;112049.66;5116309;28;20188;-75
2022/07/24 09:45:57;;;;;;;5.17;4.47;;;31.20;43.40;;;-142.21;37.66;112049.66;5116342;28;20278;-76
2022/07/24 09:48:28;;;;;;;5.93;5.33;;;31.20;43.00;;;-142.21;38.18;112049.66;5115901;28;20202;-73
2022/07/24 09:51:00;;;;;;;5.77;4.77;;;31.20;42.40;;;-142.21;38.18;112049.66;5116510;28;20313;-74
2022/07/24 09:53:31;;;;;;;5.73;5.07;;;31.30;42.80;;;-142.21;39.17;112049.66;5063291;28;20290;-74
2022/07/24 09:56:05;;;;;;;5.73;5.23;;;31.40;43.50;;;-142.21;38.13;112049.66;5116058;28;20557;-75
2022/07/24 09:58:35;;;;;;;5.50;5.00;;;31.50;43.00;;;-142.21;39.43;112049.66;5116339;28;20292;-75
2022/07/24 10:01:05;;;;;;;5.60;5.10;;;31.60;43.70;;;-142.21;40.46;112049.66;5115966;28;20655;-75
2022/07/24 10:03:35;;;;;;;5.97;5.40;;;31.70;44.20;;;-142.21;40.13;112049.66;5115811;28;20289;-75
2022/07/24 10:06:06;;;;;;;6.20;5.07;;;31.90;44.30;;;-142.21;40.12;112049.66;5116151;28;20219;-75